createdAt,value
2018-09-29T00:01:51.501Z,2.00
2018-09-29T00:04:20.055Z,2.37
2018-09-29T00:06:48.721Z,2.20
2018-09-29T00:09:17.362Z,2.00
2018-09-29T00:11:46.032Z,2.20
2018-09-29T00:14:14.657Z,2.25
2018-09-29T00:16:43.325Z,2.80
2018-09-29T00:19:12.008Z,2.23
2018-09-29T00:21:40.587Z,1.97
2018-09-29T00:24:09.241Z,2.50
2018-09-29T00:26:37.813Z,2.52
2018-09-29T00:29:06.338Z,2.17
2018-09-29T00:31:35.032Z,2.65
2018-09-29T00:34:03.618Z,2.55
2018-09-29T00:36:32.295Z,2.10
2018-09-29T00:39:00.888Z,1.80
2018-09-29T00:41:29.609Z,2.47
2018-09-29T00:43:58.167Z,3.02
2018-09-29T00:46:26.867Z,3.15
2018-09-29T00:48:55.541Z,2.00
2018-09-29T00:51:24.092Z,2.22
2018-09-29T00:53:52.709Z,2.87
2018-09-29T00:56:21.332Z,2.40
2018-09-29T00:58:50.079Z,2.40
2018-09-29T01:01:18.708Z,2.45
2018-09-29T01:03:48.951Z,2.50
2018-09-29T01:06:17.740Z,2.65
2018-09-29T01:08:46.327Z,1.65
2018-09-29T01:11:15.017Z,1.98
2018-09-29T01:13:43.565Z,2.70
2018-09-29T01:16:12.147Z,2.90
2018-09-29T01:18:40.712Z,2.40
2018-09-29T01:21:10.461Z,2.08
2018-09-29T01:23:39.490Z,2.25
2018-09-29T01:26:08.463Z,2.67
2018-09-29T01:28:37.619Z,2.10
2018-09-29T01:31:07.220Z,1.70
2018-09-29T01:33:36.085Z,2.83
2018-09-29T01:36:05.092Z,2.30
2018-09-29T01:38:33.781Z,2.22
2018-09-29T01:41:02.387Z,2.27
2018-09-29T01:43:31.104Z,3.00
2018-09-29T01:45:59.820Z,2.80
2018-09-29T01:48:28.717Z,2.10
2018-09-29T01:50:57.308Z,2.25
2018-09-29T01:53:25.902Z,2.10
2018-09-29T01:55:54.527Z,2.00
2018-09-29T01:58:23.153Z,2.65
2018-09-29T02:00:51.744Z,2.00
2018-09-29T02:03:20.306Z,1.90
2018-09-29T02:05:48.997Z,1.80
2018-09-29T02:08:17.569Z,1.95
2018-09-29T02:10:46.244Z,1.90
2018-09-29T02:13:14.829Z,1.80
2018-09-29T02:15:43.381Z,2.40
2018-09-29T02:18:12.028Z,1.52
2018-09-29T02:20:40.620Z,2.35
2018-09-29T02:23:09.213Z,1.90
2018-09-29T02:25:37.882Z,2.00
2018-09-29T02:28:06.720Z,2.40
2018-09-29T02:30:35.318Z,1.95
2018-09-29T02:33:03.973Z,2.10
2018-09-29T02:35:32.600Z,1.60
2018-09-29T02:38:01.210Z,1.80
2018-09-29T02:40:29.822Z,1.95
2018-09-29T02:42:58.570Z,1.77
2018-09-29T02:45:27.498Z,1.95
2018-09-29T02:47:56.663Z,2.58
2018-09-29T02:50:25.358Z,1.70
2018-09-29T02:52:54.045Z,2.20
2018-09-29T02:55:22.714Z,1.75
2018-09-29T02:57:51.321Z,1.90
2018-09-29T03:00:19.859Z,1.57
2018-09-29T03:02:48.409Z,1.85
2018-09-29T03:05:16.988Z,1.40
2018-09-29T03:07:45.598Z,1.62
2018-09-29T03:10:14.296Z,2.42
2018-09-29T03:12:42.945Z,1.90
2018-09-29T03:15:11.610Z,1.98
2018-09-29T03:17:40.379Z,1.72
2018-09-29T03:20:09.435Z,2.12
2018-09-29T03:22:37.964Z,2.37
2018-09-29T03:25:06.677Z,2.40
2018-09-29T03:27:35.360Z,1.90
2018-09-29T03:30:04.010Z,1.57
2018-09-29T03:32:32.653Z,1.70
2018-09-29T03:35:01.269Z,2.02
2018-09-29T03:37:29.814Z,1.80
2018-09-29T03:39:58.348Z,1.80
2018-09-29T03:42:27.018Z,2.12
2018-09-29T03:44:56.045Z,2.20
2018-09-29T03:47:24.790Z,1.82
2018-09-29T03:49:53.360Z,2.20
2018-09-29T03:52:22.117Z,2.20
2018-09-29T03:54:50.651Z,1.80
2018-09-29T03:57:19.285Z,1.70
2018-09-29T03:59:47.957Z,1.55
2018-09-29T04:02:16.593Z,1.72
2018-09-29T04:04:45.511Z,1.52
2018-09-29T04:07:14.179Z,1.67
2018-09-29T04:09:42.911Z,2.58
2018-09-29T04:12:11.498Z,2.02
2018-09-29T04:14:40.657Z,1.92
2018-09-29T04:17:09.192Z,2.35
2018-09-29T04:19:37.892Z,1.55
2018-09-29T04:22:06.636Z,1.30
2018-09-29T04:24:35.925Z,1.70
2018-09-29T04:27:04.572Z,1.95
2018-09-29T04:29:33.145Z,2.35
2018-09-29T04:32:01.821Z,2.02
2018-09-29T04:34:30.381Z,3.80
2018-09-29T04:36:58.957Z,1.65
2018-09-29T04:39:27.570Z,1.92
2018-09-29T04:41:56.150Z,1.45
2018-09-29T04:44:25.461Z,1.77
2018-09-29T04:46:54.154Z,1.90
2018-09-29T04:49:22.727Z,2.47
2018-09-29T04:51:51.302Z,2.25
2018-09-29T04:54:19.891Z,2.60
2018-09-29T04:56:48.774Z,2.00
2018-09-29T04:59:17.513Z,2.33
2018-09-29T05:01:46.071Z,1.42
2018-09-29T05:04:14.773Z,1.80
2018-09-29T05:06:43.369Z,1.80
2018-09-29T05:09:12.280Z,2.05
2018-09-29T05:11:40.891Z,1.87
2018-09-29T05:14:09.556Z,1.67
2018-09-29T05:16:38.224Z,1.55
2018-09-29T05:19:06.770Z,2.20
2018-09-29T05:21:35.980Z,1.77
2018-09-29T05:24:04.739Z,2.00
2018-09-29T05:26:33.269Z,1.92
2018-09-29T05:29:01.924Z,2.30
2018-09-29T05:31:30.591Z,2.00
2018-09-29T05:34:00.148Z,1.95
2018-09-29T05:36:28.680Z,2.52
2018-09-29T05:38:57.297Z,2.05
2018-09-29T05:41:25.910Z,2.40
2018-09-29T05:43:54.770Z,2.08
2018-09-29T05:46:23.408Z,1.70
2018-09-29T05:48:52.044Z,2.08
2018-09-29T05:51:20.718Z,2.00
2018-09-29T05:53:49.380Z,1.75
2018-09-29T05:56:18.479Z,1.52
2018-09-29T05:58:47.124Z,1.60
2018-09-29T06:01:15.699Z,2.50
2018-09-29T06:03:47.930Z,2.52
2018-09-29T06:06:18.752Z,2.05
2018-09-29T06:08:50.772Z,1.60
2018-09-29T06:11:28.862Z,1.50
2018-09-29T06:14:03.443Z,2.35
2018-09-29T06:16:34.246Z,2.08
2018-09-29T06:19:09.339Z,1.80
2018-09-29T06:21:39.526Z,2.30
2018-09-29T06:24:19.514Z,1.52
2018-09-29T06:26:57.350Z,2.17
2018-09-29T06:29:33.116Z,2.98
2018-09-29T06:32:06.022Z,2.27
2018-09-29T06:34:37.434Z,2.85
2018-09-29T06:37:24.721Z,1.60
2018-09-29T06:39:56.737Z,1.60
2018-09-29T06:42:30.453Z,2.42
2018-09-29T06:45:01.881Z,1.80
2018-09-29T06:47:37.599Z,2.00
2018-09-29T06:50:09.926Z,2.37
2018-09-29T06:58:47.014Z,1.95
2018-09-29T07:01:16.014Z,1.47
2018-09-29T07:03:47.697Z,1.90
2018-09-29T07:06:23.513Z,1.90
2018-09-29T07:08:55.809Z,2.10
2018-09-29T07:11:28.285Z,1.65
2018-09-29T07:14:00.174Z,1.95
2018-09-29T07:16:34.674Z,2.35
2018-09-29T07:19:05.790Z,1.65
2018-09-29T07:21:39.294Z,1.92
2018-09-29T07:24:14.869Z,1.30
2018-09-29T07:26:45.604Z,1.70
2018-09-29T07:29:17.049Z,1.55
2018-09-29T07:31:54.140Z,1.50
2018-09-29T07:34:27.587Z,1.47
2018-09-29T07:36:57.341Z,1.57
2018-09-29T07:39:32.089Z,2.22
2018-09-29T07:42:11.457Z,1.82
2018-09-29T07:44:44.153Z,1.90
2018-09-29T07:49:56.566Z,1.65
2018-09-29T07:52:26.961Z,1.50
2018-09-29T07:55:01.032Z,1.75
2018-09-29T07:57:37.435Z,2.50
2018-09-29T08:00:10.604Z,1.75
2018-09-29T08:02:46.481Z,2.22
2018-09-29T08:05:19.645Z,2.47
2018-09-29T08:07:52.374Z,1.65
2018-09-29T08:10:23.163Z,1.80
2018-09-29T08:12:53.768Z,1.67
2018-09-29T08:15:25.483Z,2.50
2018-09-29T08:17:58.867Z,2.08
2018-09-29T08:20:29.618Z,2.20
2018-09-29T08:23:00.349Z,2.43
2018-09-29T08:25:37.195Z,2.40
2018-09-29T08:28:15.404Z,2.13
2018-09-29T08:30:45.168Z,1.90
2018-09-29T08:33:25.572Z,1.83
2018-09-29T08:35:59.349Z,1.90
2018-09-29T08:38:35.533Z,2.20
2018-09-29T08:41:05.285Z,2.10
2018-09-29T08:43:37.981Z,1.80
2018-09-29T08:46:09.720Z,1.43
2018-09-29T08:48:40.430Z,1.97
2018-09-29T08:51:14.212Z,2.17
2018-09-29T08:53:47.020Z,2.90
2018-09-29T08:56:18.955Z,2.03
2018-09-29T08:58:50.253Z,2.00
2018-09-29T09:01:27.173Z,2.50
2018-09-29T09:03:59.239Z,2.90
2018-09-29T09:06:34.845Z,2.20
2018-09-29T09:09:08.208Z,2.30
2018-09-29T09:11:41.416Z,2.00
2018-09-29T09:14:12.063Z,2.20
2018-09-29T09:16:43.852Z,2.53
2018-09-29T09:19:14.386Z,2.80
2018-09-29T09:21:46.277Z,2.63
2018-09-29T09:24:17.715Z,3.03
2018-09-29T09:30:01.672Z,2.90
2018-09-29T09:32:32.673Z,2.80
2018-09-29T09:35:08.518Z,2.80
2018-09-29T09:37:37.196Z,3.00
2018-09-29T09:40:07.005Z,2.90
2018-09-29T09:42:35.615Z,2.87
2018-09-29T09:45:04.457Z,3.17
2018-09-29T09:47:33.194Z,2.60
2018-09-29T09:50:02.669Z,3.00
2018-09-29T09:52:32.057Z,2.60
2018-09-29T09:55:01.131Z,2.60
2018-09-29T09:57:29.797Z,2.50
2018-09-29T09:59:59.178Z,2.60
2018-09-29T10:02:33.028Z,3.30
2018-09-29T10:05:01.652Z,3.37
2018-09-29T10:07:30.217Z,3.03
2018-09-29T10:09:59.838Z,2.90
2018-09-29T10:12:28.521Z,2.70
2018-09-29T10:14:57.101Z,2.87
2018-09-29T10:17:25.825Z,2.70
2018-09-29T10:19:54.497Z,3.10
2018-09-29T10:22:23.645Z,3.13
2018-09-29T10:24:52.425Z,3.43
2018-09-29T10:27:21.083Z,3.00
2018-09-29T10:29:49.698Z,4.10
2018-09-29T10:32:18.456Z,3.80
2018-09-29T10:34:47.168Z,4.13
2018-09-29T10:37:15.835Z,3.37
2018-09-29T10:39:45.121Z,4.43
2018-09-29T10:42:14.169Z,3.70
2018-09-29T10:44:42.851Z,3.90
2018-09-29T10:47:11.518Z,3.73
2018-09-29T10:49:40.786Z,3.90
2018-09-29T10:52:09.519Z,4.23
2018-09-29T10:54:38.277Z,4.03
2018-09-29T10:57:07.350Z,3.77
2018-09-29T10:59:36.141Z,3.83
2018-09-29T11:02:04.926Z,5.23
2018-09-29T11:04:33.608Z,4.30
2018-09-29T11:07:02.625Z,4.60
2018-09-29T11:09:31.354Z,4.17
2018-09-29T11:12:00.046Z,5.90
2018-09-29T11:14:28.637Z,4.37
2018-09-29T11:16:57.157Z,4.63
2018-09-29T11:19:25.773Z,5.00
2018-09-29T11:21:55.212Z,4.33
2018-09-29T11:24:23.898Z,4.10
2018-09-29T11:26:52.820Z,3.77
2018-09-29T11:29:21.538Z,4.33
2018-09-29T11:31:50.104Z,4.50
2018-09-29T11:34:18.668Z,3.77
2018-09-29T11:36:47.315Z,4.80
2018-09-29T11:39:16.062Z,3.73
2018-09-29T11:41:44.906Z,3.73
2018-09-29T11:44:13.656Z,5.40
2018-09-29T11:46:42.196Z,3.57
2018-09-29T11:49:11.382Z,3.63
2018-09-29T11:51:40.154Z,4.50
2018-09-29T11:54:09.608Z,3.67
2018-09-29T11:56:38.338Z,3.57
2018-09-29T11:59:07.053Z,3.60
2018-09-29T12:01:35.903Z,4.47
2018-09-29T12:04:04.640Z,3.93
2018-09-29T12:06:33.229Z,3.83
2018-09-29T12:09:02.026Z,4.17
2018-09-29T12:11:30.712Z,4.17
2018-09-29T12:14:00.346Z,3.77
2018-09-29T12:16:28.997Z,4.00
2018-09-29T12:18:57.670Z,3.80
2018-09-29T12:21:26.355Z,4.20
2018-09-29T12:23:55.031Z,3.40
2018-09-29T12:26:23.842Z,3.13
2018-09-29T12:28:52.469Z,3.30
2018-09-29T12:31:22.185Z,3.53
2018-09-29T12:33:50.886Z,3.03
2018-09-29T12:36:19.435Z,3.60
2018-09-29T12:38:48.441Z,3.63
2018-09-29T12:41:17.069Z,3.53
2018-09-29T12:43:46.757Z,2.93
2018-09-29T12:46:15.444Z,3.70
2018-09-29T12:48:44.793Z,2.83
2018-09-29T12:51:14.078Z,2.63
2018-09-29T12:53:42.722Z,3.43
2018-09-29T12:56:11.455Z,3.20
2018-09-29T12:58:40.671Z,3.30
2018-09-29T13:01:11.142Z,3.37
2018-09-29T13:03:40.316Z,2.90
2018-09-29T13:06:08.914Z,2.70
2018-09-29T13:08:37.511Z,3.30
2018-09-29T13:11:06.517Z,2.70
2018-09-29T13:13:35.077Z,2.43
2018-09-29T13:16:04.297Z,3.50
2018-09-29T13:18:33.116Z,2.43
2018-09-29T13:21:02.001Z,2.60
2018-09-29T13:23:30.785Z,2.53
2018-09-29T13:25:59.987Z,2.07
2018-09-29T13:28:28.524Z,2.60
2018-09-29T13:30:57.109Z,2.30
2018-09-29T13:33:25.638Z,2.87
2018-09-29T13:35:54.453Z,2.70
2018-09-29T13:38:22.990Z,2.30
2018-09-29T13:40:51.614Z,2.80
2018-09-29T13:43:20.342Z,2.47
2018-09-29T13:45:49.228Z,2.67
2018-09-29T13:48:17.894Z,2.77
2018-09-29T13:50:46.814Z,2.60
2018-09-29T13:53:15.506Z,3.20
2018-09-29T13:55:44.877Z,2.90
2018-09-29T13:58:13.639Z,2.40
2018-09-29T14:00:42.925Z,2.13
2018-09-29T14:03:11.491Z,2.27
2018-09-29T14:05:40.224Z,2.60
2018-09-29T14:08:08.913Z,3.00
2018-09-29T14:10:37.506Z,2.00
2018-09-29T14:13:06.794Z,2.40
2018-09-29T14:15:35.703Z,2.43
2018-09-29T14:18:05.165Z,2.30
2018-09-29T14:20:33.760Z,2.50
2018-09-29T14:23:02.444Z,1.87
2018-09-29T14:25:31.147Z,2.60
2018-09-29T14:27:59.716Z,2.47
2018-09-29T14:30:28.441Z,2.10
2018-09-29T14:32:57.307Z,2.50
2018-09-29T14:35:25.992Z,1.70
2018-09-29T14:37:54.545Z,2.07
2018-09-29T14:40:23.145Z,2.53
2018-09-29T14:42:51.776Z,1.90
2018-09-29T14:45:20.386Z,2.20
2018-09-29T14:47:48.942Z,2.47
2018-09-29T14:50:17.554Z,2.00
2018-09-29T14:52:46.248Z,2.57
2018-09-29T14:55:14.945Z,2.40
2018-09-29T14:57:43.662Z,1.80
2018-09-29T15:00:12.304Z,2.20
2018-09-29T15:02:40.933Z,2.50
2018-09-29T15:05:09.579Z,1.93
2018-09-29T15:07:38.175Z,2.20
2018-09-29T15:10:06.820Z,2.80
2018-09-29T15:12:35.538Z,2.47
2018-09-29T15:15:04.241Z,2.67
2018-09-29T15:17:32.836Z,2.30
2018-09-29T15:20:02.169Z,2.17
2018-09-29T15:22:30.781Z,2.13
2018-09-29T15:25:00.840Z,2.13
2018-09-29T15:27:29.445Z,2.33
2018-09-29T15:29:58.155Z,2.53
2018-09-29T15:32:26.724Z,2.00
2018-09-29T15:34:55.361Z,2.23
2018-09-29T15:37:23.985Z,1.97
2018-09-29T15:39:52.629Z,2.03
2018-09-29T15:42:21.488Z,2.13
2018-09-29T15:44:50.105Z,1.83
2018-09-29T15:47:18.805Z,1.83
2018-09-29T15:49:47.450Z,1.77
2018-09-29T15:52:16.058Z,2.30
2018-09-29T15:54:44.692Z,1.90
2018-09-29T15:57:13.307Z,1.80
2018-09-29T15:59:41.905Z,1.73
2018-09-29T16:02:10.590Z,1.87
2018-09-29T16:04:39.214Z,1.90
2018-09-29T16:07:07.962Z,1.67
2018-09-29T16:09:36.603Z,1.77
2018-09-29T16:12:05.285Z,2.07
2018-09-29T16:14:33.864Z,2.47
2018-09-29T16:17:02.474Z,2.10
2018-09-29T16:19:31.117Z,2.00
2018-09-29T16:22:11.824Z,2.03
2018-09-29T16:24:40.592Z,2.10
2018-09-29T16:27:09.389Z,1.53
2018-09-29T16:29:38.014Z,1.77
2018-09-29T16:32:07.333Z,2.07
2018-09-29T16:34:35.922Z,1.73
2018-09-29T16:37:04.657Z,2.20
2018-09-29T16:39:33.354Z,2.00
2018-09-29T16:42:02.146Z,1.90
2018-09-29T16:44:31.165Z,2.47
2018-09-29T16:47:00.313Z,2.27
2018-09-29T16:49:29.009Z,1.53
2018-09-29T16:51:57.842Z,2.30
2018-09-29T16:54:26.577Z,1.77
2018-09-29T16:56:55.197Z,1.93
2018-09-29T16:59:23.867Z,1.87
2018-09-29T17:01:52.600Z,2.00
2018-09-29T17:04:21.220Z,2.20
2018-09-29T17:06:49.767Z,2.50
2018-09-29T17:09:18.511Z,1.80
2018-09-29T17:11:47.291Z,1.80
2018-09-29T17:14:16.086Z,1.90
2018-09-29T17:16:44.776Z,2.17
2018-09-29T17:19:13.462Z,2.10
2018-09-29T17:21:43.034Z,1.80
2018-09-29T17:24:11.878Z,1.70
2018-09-29T17:26:40.460Z,1.63
2018-09-29T17:29:09.250Z,1.63
2018-09-29T17:31:38.199Z,2.57
2018-09-29T17:34:06.840Z,3.10
2018-09-29T17:36:35.744Z,2.20
2018-09-29T17:39:06.166Z,2.00
2018-09-29T17:41:34.991Z,2.07
2018-09-29T17:44:03.740Z,2.07
2018-09-29T17:46:32.387Z,2.00
2018-09-29T17:49:00.978Z,2.13
2018-09-29T17:51:29.672Z,2.37
2018-09-29T17:53:58.200Z,1.67
2018-09-29T17:56:27.026Z,2.03
2018-09-29T17:58:55.869Z,2.13
2018-09-29T18:01:24.589Z,2.13
2018-09-29T18:03:56.324Z,2.17
2018-09-29T18:06:39.668Z,2.03
2018-09-29T18:09:11.784Z,1.93
2018-09-29T18:11:40.955Z,2.07
2018-09-29T18:14:10.262Z,2.33
2018-09-29T18:16:39.692Z,2.77
2018-09-29T18:19:09.277Z,2.30
2018-09-29T18:21:38.852Z,2.30
2018-09-29T18:24:07.862Z,2.60
2018-09-29T18:26:37.209Z,2.00
2018-09-29T18:29:08.556Z,2.43
2018-09-29T18:31:38.381Z,1.73
2018-09-29T18:34:07.340Z,1.80
2018-09-29T18:36:36.683Z,2.70
2018-09-29T18:39:08.448Z,1.82
2018-09-29T18:41:37.869Z,1.90
2018-09-29T18:44:07.492Z,1.95
2018-09-29T18:46:36.371Z,2.02
2018-09-29T18:49:05.481Z,1.82
2018-09-29T18:51:34.695Z,2.05
2018-09-29T18:54:04.390Z,2.45
2018-09-29T18:56:33.641Z,1.90
2018-09-29T18:59:02.604Z,1.80
2018-09-29T19:01:32.056Z,2.20
2018-09-29T19:04:02.226Z,2.25
2018-09-29T19:06:32.733Z,2.50
2018-09-29T19:09:01.505Z,2.00
2018-09-29T19:11:31.176Z,2.02
2018-09-29T19:13:59.941Z,1.95
2018-09-29T19:16:29.556Z,2.17
2018-09-29T19:18:59.075Z,2.45
2018-09-29T19:21:27.733Z,1.92
2018-09-29T19:23:56.385Z,2.33
2018-09-29T19:26:26.000Z,1.82
2018-09-29T19:28:55.036Z,2.62
2018-09-29T19:31:27.171Z,1.80
2018-09-29T19:33:55.798Z,1.40
2018-09-29T19:36:26.352Z,2.10
2018-09-29T19:38:55.171Z,2.72
2018-09-29T19:41:24.579Z,2.37
2018-09-29T19:43:53.717Z,1.90
2018-09-29T19:46:23.286Z,2.27
2018-09-29T19:48:51.907Z,2.30
2018-09-29T19:51:22.592Z,3.50
2018-09-29T19:53:52.607Z,5.62
2018-09-29T19:56:21.258Z,5.83
2018-09-29T19:58:50.717Z,6.42
2018-09-29T20:01:20.353Z,6.40
2018-09-29T20:03:50.947Z,6.85
2018-09-29T20:06:19.728Z,6.50
2018-09-29T20:08:48.297Z,6.60
2018-09-29T20:11:17.068Z,5.65
2018-09-29T20:13:45.702Z,6.05
2018-09-29T20:16:15.389Z,5.70
2018-09-29T20:18:44.286Z,5.35
2018-09-29T20:21:13.147Z,6.62
2018-09-29T20:23:42.209Z,7.10
2018-09-29T20:26:10.859Z,6.37
2018-09-29T20:28:39.466Z,5.65
2018-09-29T20:31:08.364Z,5.58
2018-09-29T20:33:36.945Z,4.30
2018-09-29T20:36:05.698Z,4.35
2018-09-29T20:38:34.666Z,4.80
2018-09-29T20:41:03.529Z,4.00
2018-09-29T20:43:33.394Z,3.90
2018-09-29T20:46:09.964Z,4.08
2018-09-29T20:48:39.775Z,4.33
2018-09-29T20:51:09.888Z,3.17
2018-09-29T20:53:39.094Z,4.03
2018-09-29T20:56:11.605Z,4.42
2018-09-29T20:58:40.472Z,3.50
2018-09-29T21:01:10.093Z,3.95
2018-09-29T21:03:39.677Z,3.95
2018-09-29T21:06:08.715Z,4.78
2018-09-29T21:08:38.766Z,3.37
2018-09-29T21:11:07.973Z,3.60
2018-09-29T21:13:39.064Z,4.80
2018-09-29T21:16:09.212Z,3.95
2018-09-29T21:18:38.077Z,4.33
2018-09-29T21:21:07.109Z,3.67
2018-09-29T21:23:35.801Z,4.33
2018-09-29T21:26:05.704Z,5.03
2018-09-29T21:28:35.418Z,4.00
2018-09-29T21:31:08.197Z,4.67
2018-09-29T21:33:37.787Z,4.70
2018-09-29T21:36:08.546Z,4.30
2018-09-29T21:38:37.617Z,3.05
2018-09-29T21:41:07.244Z,2.67
2018-09-29T21:43:36.409Z,3.10
2018-09-29T21:46:07.355Z,3.17
2018-09-29T21:48:36.802Z,3.17
2018-09-29T21:51:12.705Z,2.95
2018-09-29T21:53:42.973Z,2.95
2018-09-29T21:56:13.553Z,3.45
2018-09-29T21:58:43.319Z,3.08
2018-09-29T22:01:18.244Z,3.35
2018-09-29T22:03:47.032Z,2.50
2018-09-29T22:06:16.296Z,2.33
2018-09-29T22:08:46.383Z,2.67
2018-09-29T22:11:15.666Z,2.60
2018-09-29T22:13:45.801Z,2.80
2018-09-29T22:16:14.566Z,3.05
2018-09-29T22:18:44.398Z,3.67
2018-09-29T22:21:13.283Z,3.50
2018-09-29T22:23:43.156Z,3.00
2018-09-29T22:26:12.833Z,3.22
2018-09-29T22:28:41.471Z,3.45
2018-09-29T22:31:11.020Z,3.60
2018-09-29T22:33:41.105Z,3.52
2018-09-29T22:36:11.463Z,4.00
2018-09-29T22:38:40.787Z,4.40
2018-09-29T22:41:10.619Z,2.80
2018-09-29T22:43:39.393Z,3.98
2018-09-29T22:46:10.186Z,3.55
2018-09-29T22:48:38.940Z,4.28
2018-09-29T22:51:07.766Z,3.67
2018-09-29T22:53:38.069Z,3.45
2018-09-29T22:56:11.033Z,4.00
2018-09-29T22:58:40.172Z,3.12
2018-09-29T23:01:11.817Z,3.42
2018-09-29T23:03:40.842Z,2.80
2018-09-29T23:06:10.579Z,3.00
2018-09-29T23:08:40.013Z,3.55
2018-09-29T23:11:10.324Z,2.85
2018-09-29T23:13:39.537Z,3.22
2018-09-29T23:16:08.987Z,3.40
2018-09-29T23:18:38.479Z,3.12
2018-09-29T23:21:08.849Z,3.40
2018-09-29T23:23:37.956Z,3.05
2018-09-29T23:26:07.778Z,2.98
2018-09-29T23:28:37.360Z,3.15
2018-09-29T23:31:06.870Z,3.75
2018-09-29T23:33:36.104Z,3.42
2018-09-29T23:36:04.801Z,3.65
2018-09-29T23:38:33.388Z,4.03
2018-09-29T23:41:01.977Z,3.15
2018-09-29T23:43:30.772Z,3.65
2018-09-29T23:45:59.316Z,4.30
2018-09-29T23:48:28.546Z,3.72
2018-09-29T23:50:57.109Z,4.37
2018-09-29T23:53:26.273Z,3.10
2018-09-29T23:55:54.792Z,3.77
2018-09-29T23:58:23.394Z,3.05
